Time;durP1;ratioP1;P1;durP2;ratioP2;P2;SDS_P1;SDS_P2;PMS_P1;PMS_P2;Temp;Humidity;BMP_temperature;BMP_pressure;BME280_temperature;BME280_humidity;BME280_pressure;Samples;Min_cycle;Max_cycle;Signal;HPM_P1;HPM_P2
2023/11/09 00:01:31;;;;;;;2.60;1.70;;;;;;;;;;5911319;29;20078;-85
2023/11/09 00:04:33;;;;;;;1.67;1.40;;;;;;;;;;5917052;29;20052;-83
2023/11/09 00:07:35;;;;;;;2.43;1.87;;;;;;;;;;5914851;29;20063;-86
2023/11/09 00:10:37;;;;;;;4.63;1.70;;;;;;;;;;5910515;29;20112;-84
2023/11/09 00:13:39;;;;;;;3.08;1.50;;;;;;;;;;5902823;29;20056;-85
2023/11/09 00:16:41;;;;;;;2.63;1.40;;;;;;;;;;5922180;29;20051;-84
2023/11/09 00:19:43;;;;;;;3.28;1.83;;;;;;;;;;5923312;30;20058;-85
2023/11/09 00:22:51;;;;;;;4.15;1.70;;;;;;;;;;5903882;30;20047;-85
2023/11/09 00:25:54;;;;;;;3.28;1.92;;;;;;;;;;5903981;30;20040;-84
2023/11/09 00:28:57;;;;;;;4.28;1.60;;;;;;;;;;5907408;30;20055;-85
2023/11/09 00:32:00;;;;;;;2.10;1.40;;;;;;;;;;5945994;29;20495;-83
2023/11/09 00:35:03;;;;;;;3.83;1.75;;;;;;;;;;5918126;30;20436;-85
2023/11/09 00:38:07;;;;;;;2.35;1.83;;;;;;;;;;5936412;29;20503;-85
2023/11/09 00:41:10;;;;;;;2.35;1.50;;;;;;;;;;5915493;30;20056;-86
2023/11/09 00:44:12;;;;;;;3.77;1.67;;;;;;;;;;5907249;30;20060;-86
2023/11/09 00:47:17;;;;;;;4.10;1.67;;;;;;;;;;5909827;30;20095;-84
2023/11/09 00:50:20;;;;;;;2.70;1.67;;;;;;;;;;5887379;30;20110;-84
2023/11/09 00:53:21;;;;;;;2.22;1.63;;;;;;;;;;5905884;30;20047;-85
2023/11/09 00:56:24;;;;;;;8.63;2.03;;;;;;;;;;5901390;29;20495;-85
2023/11/09 00:59:26;;;;;;;4.60;2.00;;;;;;;;;;5904961;30;20055;-85
2023/11/09 01:02:34;;;;;;;3.78;1.40;;;;;;;;;;5916055;30;20476;-85
2023/11/09 01:05:36;;;;;;;2.22;1.42;;;;;;;;;;5906285;30;20126;-85
2023/11/09 01:08:38;;;;;;;2.70;1.58;;;;;;;;;;5896212;30;20055;-85
2023/11/09 01:11:40;;;;;;;2.55;1.52;;;;;;;;;;5916692;29;20062;-85
2023/11/09 01:14:43;;;;;;;2.20;1.50;;;;;;;;;;5900535;29;20059;-86
2023/11/09 01:18:06;;;;;;;3.20;1.65;;;;;;;;;;5946739;29;20036;-84
2023/11/09 01:21:08;;;;;;;4.60;1.70;;;;;;;;;;5897222;30;20135;-86
2023/11/09 01:24:10;;;;;;;3.08;1.48;;;;;;;;;;5915683;29;21001;-84
2023/11/09 01:27:12;;;;;;;2.88;1.48;;;;;;;;;;5913633;30;20056;-85
2023/11/09 01:30:14;;;;;;;1.85;1.48;;;;;;;;;;5913849;30;20055;-85
2023/11/09 01:33:16;;;;;;;2.50;1.42;;;;;;;;;;5918056;30;20047;-84
2023/11/09 01:36:18;;;;;;;4.50;1.85;;;;;;;;;;5891785;29;20532;-85
2023/11/09 01:39:23;;;;;;;3.35;1.80;;;;;;;;;;5910340;30;20054;-85
2023/11/09 01:42:24;;;;;;;3.58;1.50;;;;;;;;;;5911277;30;20048;-86
2023/11/09 01:45:27;;;;;;;3.38;1.67;;;;;;;;;;5898529;30;20067;-84
2023/11/09 01:48:29;;;;;;;2.42;1.75;;;;;;;;;;5897438;29;20412;-86
2023/11/09 01:51:31;;;;;;;4.57;1.75;;;;;;;;;;5913101;29;20062;-84
2023/11/09 01:54:34;;;;;;;2.83;1.83;;;;;;;;;;5896090;29;20052;-83
2023/11/09 01:57:36;;;;;;;3.15;1.40;;;;;;;;;;5912160;29;20047;-86
2023/11/09 02:00:38;;;;;;;5.03;2.20;;;;;;;;;;5926508;29;20419;-85
2023/11/09 02:03:41;;;;;;;2.47;1.65;;;;;;;;;;5900043;29;20501;-86
2023/11/09 02:06:42;;;;;;;2.03;1.48;;;;;;;;;;5923441;29;20047;-84
2023/11/09 02:09:44;;;;;;;2.20;1.50;;;;;;;;;;5923149;29;20068;-84
2023/11/09 02:12:47;;;;;;;4.35;1.90;;;;;;;;;;5909531;29;20059;-86
2023/11/09 02:15:49;;;;;;;3.53;1.70;;;;;;;;;;5926202;29;20123;-85
2023/11/09 02:18:51;;;;;;;2.53;1.50;;;;;;;;;;5928002;29;20135;-85
2023/11/09 02:21:55;;;;;;;4.32;2.22;;;;;;;;;;5933331;29;20052;-86
2023/11/09 02:24:57;;;;;;;;;;;;;;;;;;5927692;29;20051;-87
2023/11/09 02:27:58;;;;;;;3.53;1.83;;;;;;;;;;5908246;29;19933;-85
2023/11/09 02:31:00;;;;;;;6.25;2.47;;;;;;;;;;5914484;29;20063;-85
2023/11/09 02:34:04;;;;;;;2.33;1.63;;;;;;;;;;5902963;29;20060;-85
2023/11/09 02:37:08;;;;;;;4.05;2.22;;;;;;;;;;5920646;29;20114;-84
2023/11/09 02:40:14;;;;;;;4.00;1.80;;;;;;;;;;5907028;29;20112;-85
2023/11/09 02:43:18;;;;;;;3.10;1.48;;;;;;;;;;5929126;29;20054;-86
2023/11/09 02:46:20;;;;;;;2.88;1.65;;;;;;;;;;5913435;30;20547;-86
2023/11/09 02:49:22;;;;;;;2.28;1.65;;;;;;;;;;5913508;29;20058;-86
2023/11/09 02:52:24;;;;;;;2.55;1.60;;;;;;;;;;5924650;29;20665;-87
2023/11/09 02:55:26;;;;;;;2.38;1.40;;;;;;;;;;5916335;29;20055;-86
2023/11/09 02:58:29;;;;;;;2.13;1.50;;;;;;;;;;5918437;29;20074;-86
2023/11/09 03:01:31;;;;;;;2.00;1.50;;;;;;;;;;5922942;29;20157;-85
2023/11/09 03:04:33;;;;;;;3.15;1.55;;;;;;;;;;5922443;29;20144;-86
2023/11/09 03:07:35;;;;;;;4.05;1.90;;;;;;;;;;5913663;29;20067;-83
2023/11/09 03:10:37;;;;;;;3.78;1.77;;;;;;;;;;5922341;29;20369;-84
2023/11/09 03:13:39;;;;;;;3.35;1.50;;;;;;;;;;5919268;29;20059;-84
2023/11/09 03:16:42;;;;;;;1.67;1.30;;;;;;;;;;5914568;29;20051;-84
2023/11/09 03:19:43;;;;;;;2.40;1.30;;;;;;;;;;5896862;29;20393;-85
2023/11/09 03:22:45;;;;;;;3.60;1.38;;;;;;;;;;5925597;29;20052;-83
2023/11/09 03:25:47;;;;;;;1.95;1.55;;;;;;;;;;5896472;29;20055;-83
2023/11/09 03:28:48;;;;;;;2.40;1.63;;;;;;;;;;5908499;29;20063;-84
2023/11/09 03:31:50;;;;;;;3.33;1.55;;;;;;;;;;5903051;29;20055;-84
2023/11/09 03:34:52;;;;;;;3.85;1.48;;;;;;;;;;5920453;29;20056;-84
2023/11/09 03:37:54;;;;;;;2.38;1.40;;;;;;;;;;5909668;29;20234;-83
2023/11/09 03:40:55;;;;;;;2.58;1.70;;;;;;;;;;5911919;29;20051;-82
2023/11/09 03:43:57;;;;;;;2.83;1.50;;;;;;;;;;5914602;29;20149;-83
2023/11/09 03:46:59;;;;;;;2.85;1.48;;;;;;;;;;5914091;29;20074;-83
2023/11/09 03:50:01;;;;;;;2.58;1.20;;;;;;;;;;5931789;29;20051;-83
2023/11/09 03:53:03;;;;;;;2.70;1.13;;;;;;;;;;5914444;29;20108;-83
2023/11/09 03:56:05;;;;;;;3.97;1.60;;;;;;;;;;5934675;29;20173;-84
2023/11/09 03:59:07;;;;;;;2.15;1.20;;;;;;;;;;5920938;29;20176;-84
2023/11/09 04:02:09;;;;;;;4.37;1.60;;;;;;;;;;5929462;29;20128;-83
2023/11/09 04:05:13;;;;;;;3.08;1.52;;;;;;;;;;5933598;29;20551;-82
2023/11/09 04:08:15;;;;;;;2.33;1.45;;;;;;;;;;5934951;29;20058;-83
2023/11/09 04:11:17;;;;;;;2.53;1.60;;;;;;;;;;5913484;29;20047;-82
2023/11/09 04:14:18;;;;;;;2.50;1.50;;;;;;;;;;5910361;30;20473;-84
2023/11/09 04:17:20;;;;;;;3.65;1.85;;;;;;;;;;5889198;30;20508;-82
2023/11/09 04:20:23;;;;;;;2.38;1.77;;;;;;;;;;5922410;29;20043;-83
2023/11/09 04:23:24;;;;;;;2.72;1.70;;;;;;;;;;5907800;30;20050;-83
2023/11/09 04:26:26;;;;;;;2.97;1.60;;;;;;;;;;5890822;30;20299;-82
2023/11/09 04:29:28;;;;;;;5.20;2.20;;;;;;;;;;5907717;30;20055;-82
2023/11/09 04:32:30;;;;;;;1.50;1.40;;;;;;;;;;5908915;29;20353;-83
2023/11/09 04:35:31;;;;;;;3.40;2.00;;;;;;;;;;5898591;29;20682;-86
2023/11/09 04:38:37;;;;;;;4.63;1.65;;;;;;;;;;5909527;29;20051;-82
2023/11/09 04:41:41;;;;;;;3.50;1.88;;;;;;;;;;5893468;29;20495;-85
2023/11/09 04:44:42;;;;;;;5.22;1.65;;;;;;;;;;5910082;29;20056;-85
2023/11/09 04:47:55;;;;;;;3.10;1.70;;;;;;;;;;5901390;29;20067;-82
2023/11/09 04:51:03;;;;;;;3.10;1.88;;;;;;;;;;5909573;29;20059;-85
2023/11/09 04:54:17;;;;;;;3.47;1.90;;;;;;;;;;5907478;29;20063;-84
2023/11/09 05:07:20;;;;;;;3.55;2.10;;;;;;;;;;5925726;29;20054;-84
2023/11/09 05:10:22;;;;;;;3.15;1.92;;;;;;;;;;5910926;30;20062;-84
2023/11/09 05:13:24;;;;;;;3.40;1.83;;;;;;;;;;5900416;30;20413;-84
2023/11/09 05:16:25;;;;;;;3.78;1.70;;;;;;;;;;5910902;30;20075;-82
2023/11/09 05:19:27;;;;;;;3.78;2.10;;;;;;;;;;5911439;29;20067;-83
2023/11/09 05:22:29;;;;;;;5.40;2.17;;;;;;;;;;5904930;29;20661;-81
2023/11/09 05:25:31;;;;;;;3.38;2.10;;;;;;;;;;5907699;29;20230;-82
2023/11/09 05:28:32;;;;;;;6.28;1.88;;;;;;;;;;5894127;30;20056;-83
2023/11/09 05:31:35;;;;;;;7.28;2.50;;;;;;;;;;5906959;30;20436;-83
2023/11/09 05:34:37;;;;;;;3.90;2.20;;;;;;;;;;5904977;30;20056;-84
2023/11/09 05:37:39;;;;;;;2.70;1.92;;;;;;;;;;5907440;30;20059;-82
2023/11/09 05:40:44;;;;;;;3.83;2.30;;;;;;;;;;5905920;30;20056;-82
2023/11/09 05:43:46;;;;;;;2.55;1.98;;;;;;;;;;5890643;30;20048;-84
2023/11/09 05:46:48;;;;;;;2.85;1.80;;;;;;;;;;5905656;30;20060;-83
2023/11/09 05:49:50;;;;;;;3.80;2.10;;;;;;;;;;5907293;30;20086;-84
2023/11/09 05:52:52;;;;;;;2.83;2.10;;;;;;;;;;5906603;30;20044;-83
2023/11/09 05:55:54;;;;;;;6.72;2.50;;;;;;;;;;5904906;29;20559;-83
2023/11/09 05:58:56;;;;;;;4.25;2.08;;;;;;;;;;5908951;30;20157;-83
2023/11/09 06:01:58;;;;;;;4.22;2.17;;;;;;;;;;5907641;30;20074;-83
2023/11/09 06:05:03;;;;;;;5.40;2.45;;;;;;;;;;5904908;29;20148;-83
2023/11/09 06:08:08;;;;;;;4.05;2.60;;;;;;;;;;5906747;30;20059;-85
2023/11/09 06:11:10;;;;;;;3.78;1.98;;;;;;;;;;5891115;30;20074;-83
2023/11/09 06:14:13;;;;;;;3.45;2.10;;;;;;;;;;5915272;30;20055;-83
2023/11/09 06:17:15;;;;;;;;;;;;;;;;;;5927319;30;20044;-84
2023/11/09 06:20:20;;;;;;;3.40;2.17;;;;;;;;;;5928168;30;19993;-85
2023/11/09 06:23:25;;;;;;;4.25;2.42;;;;;;;;;;5909515;30;20063;-82
2023/11/09 06:26:26;;;;;;;4.53;2.20;;;;;;;;;;5897471;30;20539;-84
2023/11/09 06:29:28;;;;;;;5.93;2.08;;;;;;;;;;5906843;30;20185;-83
2023/11/09 06:32:30;;;;;;;4.63;2.17;;;;;;;;;;5907680;30;20059;-84
2023/11/09 06:35:32;;;;;;;3.63;2.00;;;;;;;;;;5907221;30;20059;-83
2023/11/09 06:38:35;;;;;;;14.30;6.15;;;;;;;;;;5910404;29;20409;-84
2023/11/09 06:41:37;;;;;;;4.85;2.65;;;;;;;;;;5914787;29;20051;-84
2023/11/09 06:44:40;;;;;;;4.82;2.05;;;;;;;;;;5907870;29;20351;-84
2023/11/09 06:47:42;;;;;;;5.30;1.97;;;;;;;;;;5911966;29;20058;-84
2023/11/09 06:50:44;;;;;;;4.65;1.90;;;;;;;;;;5900173;29;20109;-83
2023/11/09 06:53:46;;;;;;;5.25;1.80;;;;;;;;;;5913214;29;20054;-83
2023/11/09 06:56:48;;;;;;;2.60;1.55;;;;;;;;;;5912996;29;20534;-83
2023/11/09 06:59:50;;;;;;;3.20;1.70;;;;;;;;;;5919362;29;20419;-84
2023/11/09 07:02:53;;;;;;;3.80;2.00;;;;;;;;;;5910946;29;20567;-84
2023/11/09 07:05:55;;;;;;;2.88;1.80;;;;;;;;;;5910964;30;20054;-85
2023/11/09 07:08:57;;;;;;;4.85;1.95;;;;;;;;;;5926083;30;20062;-82
2023/11/09 07:12:03;;;;;;;5.00;2.00;;;;;;;;;;5916230;30;20111;-83
2023/11/09 07:15:07;;;;;;;3.95;1.88;;;;;;;;;;5900543;30;20196;-83
2023/11/09 07:18:10;;;;;;;5.72;1.80;;;;;;;;;;5911147;30;20058;-83
2023/11/09 07:21:12;;;;;;;4.28;1.80;;;;;;;;;;5894132;30;20525;-84
2023/11/09 07:24:17;;;;;;;3.60;2.08;;;;;;;;;;5913659;29;20063;-84
2023/11/09 07:27:21;;;;;;;2.58;1.70;;;;;;;;;;5908871;30;20066;-83
2023/11/09 07:30:28;;;;;;;2.20;1.70;;;;;;;;;;5924328;29;20583;-85
2023/11/09 07:33:29;;;;;;;3.13;1.77;;;;;;;;;;5890334;30;20058;-82
2023/11/09 07:36:33;;;;;;;;;;;;;;;;;;5915596;29;20066;-85
2023/11/09 07:39:35;;;;;;;2.55;1.67;;;;;;;;;;5891669;29;20012;-85
2023/11/09 07:42:43;;;;;;;3.88;1.95;;;;;;;;;;5921646;29;20105;-83
2023/11/09 07:45:45;;;;;;;4.90;2.10;;;;;;;;;;5885452;29;20057;-85
2023/11/09 07:48:47;;;;;;;3.63;1.90;;;;;;;;;;5898448;29;20515;-84
2023/11/09 07:51:49;;;;;;;5.45;1.83;;;;;;;;;;5906758;29;20543;-83
2023/11/09 07:54:52;;;;;;;2.80;1.60;;;;;;;;;;5909855;29;20043;-84
2023/11/09 07:58:02;;;;;;;3.00;1.77;;;;;;;;;;5920321;29;20059;-82
2023/11/09 08:01:06;;;;;;;3.67;2.00;;;;;;;;;;5921384;29;20100;-82
2023/11/09 08:04:09;;;;;;;3.67;1.70;;;;;;;;;;5934822;29;20112;-83
2023/11/09 08:07:12;;;;;;;3.33;1.80;;;;;;;;;;5920795;29;20098;-83
2023/11/09 08:10:14;;;;;;;3.40;2.00;;;;;;;;;;5928826;29;20174;-84
2023/11/09 08:13:16;;;;;;;3.47;1.55;;;;;;;;;;5932548;29;20056;-83
2023/11/09 08:16:18;;;;;;;3.47;2.38;;;;;;;;;;5918721;29;20083;-83
2023/11/09 08:19:20;;;;;;;3.13;2.05;;;;;;;;;;5922241;30;20047;-84
2023/11/09 08:22:22;;;;;;;3.47;2.05;;;;;;;;;;5935800;29;20062;-82
2023/11/09 08:25:27;;;;;;;4.68;2.40;;;;;;;;;;5912940;30;20066;-83
2023/11/09 08:28:30;;;;;;;6.95;2.45;;;;;;;;;;5899098;30;20059;-83
2023/11/09 08:31:38;;;;;;;2.53;1.63;;;;;;;;;;5885772;30;20066;-82
2023/11/09 08:34:40;;;;;;;3.35;1.58;;;;;;;;;;5895294;29;20056;-81
2023/11/09 08:37:45;;;;;;;3.13;1.67;;;;;;;;;;5915798;29;20051;-81
2023/11/09 08:40:51;;;;;;;3.58;1.80;;;;;;;;;;5921822;29;20058;-83
2023/11/09 08:43:55;;;;;;;2.10;1.58;;;;;;;;;;5880344;29;20121;-83
2023/11/09 08:47:00;;;;;;;3.95;2.00;;;;;;;;;;5912315;29;20298;-83
2023/11/09 08:50:02;;;;;;;;;;;;;;;;;;5889063;30;20055;-84
2023/11/09 08:53:05;;;;;;;3.50;1.67;;;;;;;;;;5904017;29;19929;-85
2023/11/09 08:56:07;;;;;;;2.88;1.75;;;;;;;;;;5908016;29;20064;-82
2023/11/09 08:59:11;;;;;;;1.88;1.50;;;;;;;;;;5904863;29;20053;-84
2023/11/09 09:02:15;;;;;;;1.92;1.50;;;;;;;;;;5888918;29;20047;-83
2023/11/09 09:05:23;;;;;;;3.17;1.60;;;;;;;;;;5897818;30;20306;-85
2023/11/09 09:08:26;;;;;;;1.90;1.52;;;;;;;;;;5891870;29;20074;-85
2023/11/09 09:11:30;;;;;;;3.30;1.77;;;;;;;;;;5933759;29;20047;-84
2023/11/09 09:14:33;;;;;;;1.88;1.60;;;;;;;;;;5903480;29;20071;-86
2023/11/09 09:17:38;;;;;;;2.90;1.73;;;;;;;;;;5897607;29;20065;-85
2023/11/09 09:20:44;;;;;;;3.17;1.20;;;;;;;;;;5898302;29;20110;-87
2023/11/09 09:23:53;;;;;;;1.35;1.10;;;;;;;;;;5891367;30;20066;-85
2023/11/09 09:26:55;;;;;;;2.92;1.40;;;;;;;;;;5905555;30;20055;-86
2023/11/09 09:29:57;;;;;;;2.33;1.40;;;;;;;;;;5910690;29;20083;-85
2023/11/09 09:32:59;;;;;;;2.15;1.35;;;;;;;;;;5916062;30;20063;-85
2023/11/09 09:36:05;;;;;;;2.05;1.60;;;;;;;;;;5921699;29;20059;-86
2023/11/09 09:39:08;;;;;;;1.75;1.30;;;;;;;;;;5916050;29;20078;-85
2023/11/09 09:42:14;;;;;;;3.58;1.58;;;;;;;;;;5907813;30;20185;-86
2023/11/09 09:45:27;;;;;;;1.95;1.52;;;;;;;;;;5933629;29;20051;-83
2023/11/09 09:48:28;;;;;;;1.95;1.40;;;;;;;;;;5940045;29;20055;-85
2023/11/09 09:51:34;;;;;;;1.77;1.50;;;;;;;;;;5907140;29;20047;-83
2023/11/09 09:54:41;;;;;;;2.08;1.70;;;;;;;;;;5935154;29;20051;-85
2023/11/09 09:57:44;;;;;;;3.75;1.70;;;;;;;;;;5936155;29;20059;-84
2023/11/09 10:00:47;;;;;;;2.70;1.48;;;;;;;;;;5908690;29;20415;-83
2023/11/09 10:03:52;;;;;;;2.08;1.80;;;;;;;;;;5905437;30;20544;-84
2023/11/09 10:06:54;;;;;;;2.42;1.90;;;;;;;;;;5920588;30;20055;-85
2023/11/09 10:09:56;;;;;;;3.65;2.10;;;;;;;;;;5909712;29;20051;-85
2023/11/09 10:13:13;;;;;;;2.40;2.10;;;;;;;;;;5920474;29;20058;-85
2023/11/09 10:16:16;;;;;;;2.10;1.65;;;;;;;;;;5933887;29;20051;-85
2023/11/09 10:19:17;;;;;;;2.72;2.00;;;;;;;;;;5921884;30;20055;-86
2023/11/09 10:22:19;;;;;;;3.08;1.80;;;;;;;;;;5937024;29;20079;-85
2023/11/09 10:25:27;;;;;;;1.90;1.70;;;;;;;;;;5926085;29;20062;-84
2023/11/09 10:28:29;;;;;;;3.33;2.70;;;;;;;;;;5938802;29;20522;-85
2023/11/09 10:31:31;;;;;;;2.28;1.77;;;;;;;;;;5924015;29;20443;-85
2023/11/09 10:34:35;;;;;;;2.17;1.60;;;;;;;;;;5921028;30;20043;-85
2023/11/09 10:37:39;;;;;;;2.97;2.20;;;;;;;;;;5913615;29;20059;-85
2023/11/09 10:40:41;;;;;;;;;;;;;;;;;;5922471;29;20050;-85
2023/11/09 10:43:47;;;;;;;2.78;1.83;;;;;;;;;;5905709;30;19929;-85
2023/11/09 10:46:55;;;;;;;2.35;1.75;;;;;;;;;;5912921;29;20055;-84
2023/11/09 10:50:07;;;;;;;3.40;1.98;;;;;;;;;;5922018;29;20053;-85
2023/11/09 10:53:12;;;;;;;3.70;1.88;;;;;;;;;;5907766;29;20068;-84
2023/11/09 10:56:16;;;;;;;5.22;2.03;;;;;;;;;;5940761;29;20055;-87
2023/11/09 10:59:21;;;;;;;2.03;1.50;;;;;;;;;;5935894;29;20051;-85
2023/11/09 11:02:27;;;;;;;3.17;1.58;;;;;;;;;;5923813;29;20058;-84
2023/11/09 11:05:30;;;;;;;2.17;1.40;;;;;;;;;;5937036;29;20131;-84
2023/11/09 11:08:38;;;;;;;2.95;1.60;;;;;;;;;;5900733;29;20054;-83
2023/11/09 11:11:47;;;;;;;1.58;1.40;;;;;;;;;;5914970;30;20063;-84
2023/11/09 11:14:51;;;;;;;1.92;1.33;;;;;;;;;;5899604;29;20044;-85
2023/11/09 11:18:17;;;;;;;2.05;1.40;;;;;;;;;;5925318;29;20051;-85
2023/11/09 11:21:52;;;;;;;2.25;1.45;;;;;;;;;;5911639;29;20130;-86
2023/11/09 11:25:14;;;;;;;2.10;1.38;;;;;;;;;;5935113;29;20575;-85
2023/11/09 11:28:18;;;;;;;1.40;1.30;;;;;;;;;;5921210;29;20055;-85
2023/11/09 11:31:21;;;;;;;1.58;1.20;;;;;;;;;;5932123;29;20432;-86
2023/11/09 11:34:42;;;;;;;;;;;;;;;;;;5941183;29;20110;-84
2023/11/09 11:37:43;;;;;;;1.50;1.23;;;;;;;;;;5942101;29;20001;-86
2023/11/09 11:41:18;;;;;;;1.52;1.10;;;;;;;;;;5920376;29;20644;-85
2023/11/09 11:44:21;;;;;;;2.33;1.40;;;;;;;;;;5920397;29;20117;-84
2023/11/09 11:47:36;;;;;;;1.45;1.23;;;;;;;;;;5941539;29;20526;-84
2023/11/09 11:50:41;;;;;;;1.38;1.27;;;;;;;;;;5905879;30;20071;-83
2023/11/09 11:53:46;;;;;;;1.23;1.08;;;;;;;;;;5918696;29;20051;-85
2023/11/09 11:56:51;;;;;;;1.48;1.10;;;;;;;;;;5913393;30;20051;-85
2023/11/09 12:00:08;;;;;;;1.60;1.13;;;;;;;;;;5915309;30;20487;-84
2023/11/09 12:03:12;;;;;;;1.65;1.13;;;;;;;;;;5910763;30;20143;-83
2023/11/09 12:06:20;;;;;;;1.33;1.17;;;;;;;;;;5913698;30;20051;-83
2023/11/09 12:09:28;;;;;;;2.67;1.50;;;;;;;;;;5910054;30;20547;-84
2023/11/09 12:12:31;;;;;;;23.17;12.35;;;;;;;;;;5918800;29;20059;-87
2023/11/09 12:15:33;;;;;;;5.53;3.80;;;;;;;;;;5911686;29;20504;-84
2023/11/09 12:18:36;;;;;;;3.67;2.85;;;;;;;;;;5903856;30;20055;-85
2023/11/09 12:21:38;;;;;;;5.25;2.53;;;;;;;;;;5909834;30;20051;-86
2023/11/09 12:24:41;;;;;;;3.00;2.20;;;;;;;;;;5941102;29;20058;-86
2023/11/09 12:27:46;;;;;;;2.00;1.80;;;;;;;;;;5923010;30;20051;-84
2023/11/09 12:30:48;;;;;;;2.15;1.90;;;;;;;;;;5923139;29;20059;-86
2023/11/09 12:34:04;;;;;;;2.42;1.33;;;;;;;;;;5919985;29;20366;-85
2023/11/09 12:37:12;;;;;;;1.42;1.25;;;;;;;;;;5918050;29;20137;-86
2023/11/09 12:40:14;;;;;;;1.25;1.10;;;;;;;;;;5935931;29;20051;-86
2023/11/09 12:43:16;;;;;;;1.75;1.48;;;;;;;;;;5935782;29;20063;-86
2023/11/09 12:46:23;;;;;;;1.55;1.45;;;;;;;;;;5936682;29;20414;-86
2023/11/09 12:49:31;;;;;;;3.25;1.65;;;;;;;;;;5901764;30;20051;-86
2023/11/09 12:52:35;;;;;;;1.95;1.13;;;;;;;;;;5937315;29;20055;-86
2023/11/09 12:55:37;;;;;;;1.00;1.00;;;;;;;;;;5915305;29;20051;-85
2023/11/09 12:58:40;;;;;;;1.08;0.98;;;;;;;;;;5932498;29;20111;-85
2023/11/09 13:01:43;;;;;;;2.25;0.85;;;;;;;;;;5909859;30;20055;-85
2023/11/09 13:04:48;;;;;;;1.35;1.10;;;;;;;;;;5933271;30;20062;-85
2023/11/09 13:07:55;;;;;;;1.33;1.20;;;;;;;;;;5908332;29;20432;-84
2023/11/09 13:10:57;;;;;;;2.10;1.90;;;;;;;;;;5919347;29;20158;-85
2023/11/09 13:14:01;;;;;;;0.85;0.85;;;;;;;;;;5901194;29;20134;-86
2023/11/09 13:17:03;;;;;;;1.33;0.98;;;;;;;;;;5904673;29;20055;-86
2023/11/09 13:20:06;;;;;;;2.22;1.00;;;;;;;;;;5908291;29;20051;-86
2023/11/09 13:23:12;;;;;;;4.23;3.13;;;;;;;;;;5935955;29;20059;-85
2023/11/09 13:26:26;;;;;;;4.35;2.45;;;;;;;;;;5888200;30;20461;-86
2023/11/09 13:29:28;;;;;;;1.75;0.80;;;;;;;;;;5918733;29;20347;-85
2023/11/09 13:32:32;;;;;;;1.45;0.70;;;;;;;;;;5936067;29;20051;-87
2023/11/09 13:35:37;;;;;;;0.90;0.80;;;;;;;;;;5937171;29;20070;-85
2023/11/09 13:41:51;;;;;;;0.65;0.65;;;;;;;;;;5936355;29;20058;-85
2023/11/09 13:44:54;;;;;;;1.40;0.90;;;;;;;;;;5922949;29;20055;-86
2023/11/09 13:47:57;;;;;;;2.25;0.70;;;;;;;;;;5927431;29;20106;-86
2023/11/09 13:51:00;;;;;;;0.70;0.70;;;;;;;;;;5925255;29;20557;-86
2023/11/09 13:57:27;;;;;;;0.63;0.60;;;;;;;;;;5936584;29;20055;-85
2023/11/09 14:00:36;;;;;;;0.88;0.70;;;;;;;;;;5907745;29;20055;-85
2023/11/09 14:03:42;;;;;;;1.40;0.73;;;;;;;;;;5922081;30;20130;-85
2023/11/09 14:06:45;;;;;;;1.38;0.70;;;;;;;;;;5920602;29;20141;-84
2023/11/09 14:09:47;;;;;;;0.70;0.70;;;;;;;;;;5920474;29;20047;-83
2023/11/09 14:12:49;;;;;;;1.45;1.25;;;;;;;;;;5931849;29;20059;-84
2023/11/09 14:15:53;;;;;;;0.73;0.73;;;;;;;;;;5920732;29;21601;-82
2023/11/09 14:19:03;;;;;;;0.90;0.70;;;;;;;;;;5923891;30;20051;-84
2023/11/09 14:22:05;;;;;;;0.73;0.73;;;;;;;;;;5935396;29;20051;-85
2023/11/09 14:25:09;;;;;;;1.00;0.68;;;;;;;;;;5919333;29;20059;-86
2023/11/09 14:28:11;;;;;;;0.60;0.60;;;;;;;;;;5903863;30;20048;-86
2023/11/09 14:31:18;;;;;;;1.88;1.42;;;;;;;;;;5901586;29;20059;-84
2023/11/09 14:34:22;;;;;;;1.40;1.30;;;;;;;;;;5932299;29;20047;-85
2023/11/09 14:37:24;;;;;;;1.17;0.90;;;;;;;;;;5900197;29;20058;-85
2023/11/09 14:40:28;;;;;;;2.00;1.30;;;;;;;;;;5901623;29;20043;-85
2023/11/09 14:43:33;;;;;;;2.03;1.05;;;;;;;;;;5904365;29;20107;-86
2023/11/09 14:46:35;;;;;;;1.90;0.70;;;;;;;;;;5910399;30;20051;-86
2023/11/09 14:49:41;;;;;;;6.50;2.78;;;;;;;;;;5932499;29;20051;-85
2023/11/09 14:55:59;;;;;;;2.28;1.17;;;;;;;;;;5918697;29;20063;-85
2023/11/09 14:59:03;;;;;;;3.38;1.20;;;;;;;;;;5918940;29;20051;-85
2023/11/09 15:02:07;;;;;;;1.48;1.08;;;;;;;;;;5900947;29;20047;-85
2023/11/09 15:05:12;;;;;;;2.03;1.27;;;;;;;;;;5918788;29;20061;-86
2023/11/09 15:08:13;;;;;;;1.73;1.10;;;;;;;;;;5920670;29;20067;-85
2023/11/09 15:11:16;;;;;;;2.85;0.65;;;;;;;;;;5912469;29;20101;-86
2023/11/09 15:14:18;;;;;;;2.13;0.98;;;;;;;;;;5937968;29;20052;-86
2023/11/09 15:17:21;;;;;;;1.55;0.93;;;;;;;;;;5917139;29;20138;-85
2023/11/09 15:20:22;;;;;;;2.80;1.00;;;;;;;;;;5915918;30;20151;-87
2023/11/09 15:23:24;;;;;;;2.10;1.08;;;;;;;;;;5902533;30;20812;-84
2023/11/09 15:26:26;;;;;;;2.78;1.83;;;;;;;;;;5933440;29;20065;-84
2023/11/09 15:29:28;;;;;;;3.38;1.30;;;;;;;;;;5921194;30;20121;-84
2023/11/09 15:32:30;;;;;;;4.03;1.10;;;;;;;;;;5916764;29;20168;-85
2023/11/09 15:35:32;;;;;;;1.42;1.10;;;;;;;;;;5920944;29;20074;-85
2023/11/09 15:38:38;;;;;;;2.85;1.20;;;;;;;;;;5934998;29;20062;-85
2023/11/09 15:41:40;;;;;;;5.70;1.20;;;;;;;;;;5917727;30;20055;-85
2023/11/09 15:44:42;;;;;;;3.38;1.50;;;;;;;;;;5934051;29;20071;-85
2023/11/09 15:47:44;;;;;;;2.17;1.40;;;;;;;;;;5921386;30;20047;-85
2023/11/09 15:50:46;;;;;;;2.90;1.30;;;;;;;;;;5921082;30;20066;-84
2023/11/09 15:53:47;;;;;;;1.92;1.20;;;;;;;;;;5943672;29;20136;-85
2023/11/09 15:56:49;;;;;;;4.97;1.42;;;;;;;;;;5943772;29;20057;-84
2023/11/09 15:59:54;;;;;;;4.00;1.33;;;;;;;;;;5925613;29;20088;-85
2023/11/09 16:02:56;;;;;;;4.85;1.30;;;;;;;;;;5941316;29;20101;-85
2023/11/09 16:05:58;;;;;;;5.20;2.40;;;;;;;;;;5941218;29;20051;-86
2023/11/09 16:09:00;;;;;;;4.13;2.30;;;;;;;;;;5921441;29;20055;-84
2023/11/09 16:12:03;;;;;;;2.38;1.10;;;;;;;;;;5911210;30;20245;-86
2023/11/09 16:15:07;;;;;;;;;;;;;;;;;;5940371;29;20051;-85
2023/11/09 16:18:09;;;;;;;6.72;1.40;;;;;;;;;;5922475;29;19925;-86
2023/11/09 16:21:11;;;;;;;6.22;1.40;;;;;;;;;;5924785;30;20059;-84
2023/11/09 16:24:15;;;;;;;3.17;1.50;;;;;;;;;;5909443;29;20441;-84
2023/11/09 16:27:17;;;;;;;;;;;;;;;;;;5927396;29;20047;-84
2023/11/09 16:30:25;;;;;;;2.35;1.20;;;;;;;;;;5938461;29;19981;-85
2023/11/09 16:33:28;;;;;;;2.60;1.20;;;;;;;;;;5939150;29;20063;-86
2023/11/09 16:36:30;;;;;;;5.47;2.10;;;;;;;;;;5942491;29;20178;-84
2023/11/09 16:39:36;;;;;;;3.40;1.10;;;;;;;;;;5919356;30;20525;-86
2023/11/09 16:42:38;;;;;;;4.07;1.48;;;;;;;;;;5910975;30;20784;-85
2023/11/09 16:45:41;;;;;;;4.60;1.25;;;;;;;;;;5921270;29;20047;-84
2023/11/09 16:48:44;;;;;;;5.43;1.55;;;;;;;;;;5919730;29;20051;-85
2023/11/09 16:51:46;;;;;;;10.23;2.27;;;;;;;;;;5922688;29;20170;-85
2023/11/09 16:54:47;;;;;;;3.70;1.25;;;;;;;;;;5927504;30;20066;-84
2023/11/09 16:57:49;;;;;;;4.38;1.92;;;;;;;;;;5920777;30;20055;-85
2023/11/09 17:00:51;;;;;;;10.05;2.65;;;;;;;;;;5937879;29;20058;-85
2023/11/09 17:03:53;;;;;;;16.17;4.90;;;;;;;;;;5938299;29;20063;-85
2023/11/09 17:06:55;;;;;;;24.67;8.18;;;;;;;;;;5924440;29;20051;-86
2023/11/09 17:09:57;;;;;;;5.93;1.98;;;;;;;;;;5924543;29;20062;-85
2023/11/09 17:12:59;;;;;;;11.50;4.50;;;;;;;;;;5930565;29;20070;-85
2023/11/09 17:16:01;;;;;;;6.68;4.10;;;;;;;;;;5920449;29;20448;-86
2023/11/09 17:19:03;;;;;;;11.13;4.18;;;;;;;;;;5935983;29;20503;-84
2023/11/09 17:22:08;;;;;;;10.73;4.60;;;;;;;;;;5921206;29;20051;-86
2023/11/09 17:25:10;;;;;;;11.45;5.43;;;;;;;;;;5935417;29;20051;-84
2023/11/09 17:28:12;;;;;;;7.97;4.43;;;;;;;;;;5916239;30;20508;-85
2023/11/09 17:31:14;;;;;;;5.85;3.05;;;;;;;;;;5916472;29;20125;-83
2023/11/09 17:34:19;;;;;;;7.18;3.03;;;;;;;;;;5917928;29;20231;-85
2023/11/09 17:37:21;;;;;;;21.38;7.40;;;;;;;;;;5930719;29;20337;-83
2023/11/09 17:40:23;;;;;;;28.35;8.50;;;;;;;;;;5912393;29;20062;-86
2023/11/09 17:43:26;;;;;;;10.50;3.78;;;;;;;;;;5917988;29;20057;-86
2023/11/09 17:46:28;;;;;;;;;;;;;;;;;;5933854;29;20054;-85
2023/11/09 17:49:30;;;;;;;14.70;4.38;;;;;;;;;;5900765;29;19952;-85
2023/11/09 17:52:34;;;;;;;16.40;4.90;;;;;;;;;;5922059;29;20138;-85
2023/11/09 17:55:36;;;;;;;14.38;5.53;;;;;;;;;;5903071;30;20393;-85
2023/11/09 17:58:39;;;;;;;12.20;4.13;;;;;;;;;;5914361;30;20061;-85
2023/11/09 18:01:41;;;;;;;;;;;;;;;;;;5919489;29;20188;-84
2023/11/09 18:04:43;;;;;;;5.50;2.72;;;;;;;;;;5919995;29;20310;-85
2023/11/09 18:07:45;;;;;;;10.35;3.00;;;;;;;;;;5921823;30;20050;-84
2023/11/09 18:10:46;;;;;;;9.05;4.03;;;;;;;;;;5928756;30;20055;-86
2023/11/09 18:13:48;;;;;;;6.72;3.47;;;;;;;;;;5918055;29;20078;-85
2023/11/09 18:16:50;;;;;;;8.57;3.10;;;;;;;;;;5918167;29;20500;-85
2023/11/09 18:19:52;;;;;;;2.25;1.50;;;;;;;;;;5920775;29;20047;-85
2023/11/09 18:22:53;;;;;;;3.28;2.00;;;;;;;;;;5917471;30;20055;-86
2023/11/09 18:25:55;;;;;;;6.22;3.30;;;;;;;;;;5925571;29;20516;-85
2023/11/09 18:28:57;;;;;;;3.00;2.30;;;;;;;;;;5921414;30;20361;-85
2023/11/09 18:31:59;;;;;;;8.73;2.30;;;;;;;;;;5904027;29;20062;-86
2023/11/09 18:35:06;;;;;;;5.17;2.73;;;;;;;;;;5918769;29;20490;-86
2023/11/09 18:38:09;;;;;;;5.60;3.10;;;;;;;;;;5921775;30;20452;-84
2023/11/09 18:41:11;;;;;;;4.45;1.90;;;;;;;;;;5921368;30;20052;-86
2023/11/09 18:44:14;;;;;;;8.73;2.13;;;;;;;;;;5932943;29;20477;-84